createdAt,value
2023-11-09T00:00:40.672Z,1.40
2023-11-09T00:03:42.227Z,1.40
2023-11-09T00:06:43.784Z,1.20
2023-11-09T00:09:45.332Z,1.20
2023-11-09T00:12:46.956Z,1.47
2023-11-09T00:15:48.504Z,1.10
2023-11-09T00:18:50.207Z,1.10
2023-11-09T00:21:54.276Z,1.30
2023-11-09T00:24:58.363Z,1.37
2023-11-09T00:28:00.031Z,1.20
2023-11-09T00:31:01.654Z,1.38
2023-11-09T00:34:03.275Z,1.00
2023-11-09T00:37:04.973Z,1.10
2023-11-09T00:40:06.542Z,1.00
2023-11-09T00:43:08.107Z,1.00
2023-11-09T00:46:09.712Z,1.50
2023-11-09T00:49:11.319Z,1.40
2023-11-09T00:52:12.979Z,1.00
2023-11-09T00:55:16.869Z,1.10
2023-11-09T00:58:19.897Z,1.23
2023-11-09T01:01:21.474Z,1.10
2023-11-09T01:04:23.148Z,1.30
2023-11-09T01:07:24.746Z,1.20
2023-11-09T01:10:26.321Z,0.97
2023-11-09T01:13:27.894Z,1.20
2023-11-09T01:16:29.544Z,1.10
2023-11-09T01:19:31.108Z,1.10
2023-11-09T01:22:32.698Z,1.00
2023-11-09T01:25:34.293Z,1.00
2023-11-09T01:28:35.837Z,1.10
2023-11-09T01:31:37.391Z,1.30
2023-11-09T01:34:38.939Z,1.00
2023-11-09T01:37:40.509Z,1.00
2023-11-09T01:40:42.030Z,1.00
2023-11-09T01:43:43.618Z,1.03
2023-11-09T01:46:45.178Z,0.97
2023-11-09T01:49:46.764Z,1.00
2023-11-09T01:52:48.331Z,0.97
2023-11-09T01:55:49.881Z,0.80
2023-11-09T01:58:53.853Z,0.90
2023-11-09T02:01:55.393Z,0.77
2023-11-09T02:04:57.000Z,0.90
2023-11-09T02:07:58.561Z,0.93
2023-11-09T02:11:00.074Z,0.90
2023-11-09T02:14:01.615Z,0.70
2023-11-09T02:17:03.200Z,0.90
2023-11-09T02:20:04.730Z,1.00
2023-11-09T02:23:06.288Z,1.33
2023-11-09T02:26:07.806Z,0.80
2023-11-09T02:29:09.457Z,0.80
2023-11-09T02:32:10.956Z,0.93
2023-11-09T02:35:12.655Z,0.70
2023-11-09T02:38:14.201Z,0.87
2023-11-09T02:41:15.696Z,0.90
2023-11-09T02:44:17.235Z,0.90
2023-11-09T02:47:18.751Z,0.83
2023-11-09T02:50:20.275Z,0.60
2023-11-09T02:53:24.571Z,0.97
2023-11-09T02:56:26.091Z,1.08
2023-11-09T02:59:27.617Z,0.70
2023-11-09T03:02:29.224Z,1.07
2023-11-09T03:05:31.007Z,0.73
2023-11-09T03:08:32.620Z,1.57
2023-11-09T03:11:34.122Z,1.00
2023-11-09T03:14:35.680Z,0.90
2023-11-09T03:17:37.193Z,0.87
2023-11-09T03:20:38.729Z,0.87
2023-11-09T03:23:40.264Z,0.70
2023-11-09T03:26:41.807Z,1.10
2023-11-09T03:29:43.345Z,0.60
2023-11-09T03:32:44.913Z,0.93
2023-11-09T03:35:46.488Z,0.80
2023-11-09T03:38:48.034Z,0.88
2023-11-09T03:41:49.790Z,0.90
2023-11-09T03:44:51.383Z,0.77
2023-11-09T03:47:52.983Z,0.67
2023-11-09T03:50:54.544Z,0.70
2023-11-09T03:53:56.039Z,0.67
2023-11-09T03:56:57.585Z,0.70
2023-11-09T03:59:59.155Z,0.70
2023-11-09T04:03:00.732Z,0.80
2023-11-09T04:06:02.457Z,0.87
2023-11-09T04:09:03.992Z,0.60
2023-11-09T04:12:05.543Z,0.80
2023-11-09T04:15:07.141Z,0.88
2023-11-09T04:18:08.861Z,0.80
2023-11-09T04:21:12.830Z,0.87
2023-11-09T04:24:14.381Z,0.77
2023-11-09T04:27:15.993Z,0.80
2023-11-09T04:30:17.543Z,0.80
2023-11-09T04:33:19.056Z,0.60
2023-11-09T04:36:20.611Z,0.60
2023-11-09T04:39:22.209Z,0.70
2023-11-09T04:42:23.743Z,0.60
2023-11-09T04:45:25.238Z,1.33
2023-11-09T04:48:26.809Z,0.60
2023-11-09T04:51:28.365Z,0.60
2023-11-09T04:54:29.906Z,0.80
2023-11-09T04:57:31.438Z,0.60
2023-11-09T05:00:32.982Z,0.70
2023-11-09T05:03:34.626Z,0.70
2023-11-09T05:06:36.207Z,0.87
2023-11-09T05:09:37.753Z,0.70
2023-11-09T05:12:39.305Z,0.60
2023-11-09T05:15:40.841Z,0.70
2023-11-09T05:18:42.671Z,0.60
2023-11-09T05:21:44.198Z,0.70
2023-11-09T05:24:45.756Z,0.60
2023-11-09T05:27:47.267Z,0.60
2023-11-09T05:30:48.815Z,0.60
2023-11-09T05:33:50.383Z,0.50
2023-11-09T05:36:51.928Z,0.80
2023-11-09T05:39:55.615Z,0.80
2023-11-09T05:42:57.118Z,0.70
2023-11-09T05:45:58.676Z,1.00
2023-11-09T05:49:00.447Z,0.90
2023-11-09T05:52:02.199Z,0.60
2023-11-09T05:55:03.824Z,0.60
2023-11-09T05:58:05.517Z,0.70
2023-11-09T06:01:07.056Z,0.50
2023-11-09T06:04:08.633Z,0.60
2023-11-09T06:07:10.236Z,0.60
2023-11-09T06:10:11.795Z,0.70
2023-11-09T06:13:13.354Z,0.60
2023-11-09T06:16:14.947Z,0.57
2023-11-09T06:19:16.542Z,0.60
2023-11-09T06:22:18.110Z,0.43
2023-11-09T06:25:19.688Z,0.87
2023-11-09T06:28:21.220Z,0.73
2023-11-09T06:31:23.181Z,0.50
2023-11-09T06:34:24.872Z,0.60
2023-11-09T06:37:26.458Z,0.63
2023-11-09T06:40:28.140Z,0.70
2023-11-09T06:43:29.738Z,0.63
2023-11-09T06:46:31.345Z,0.53
2023-11-09T06:49:32.905Z,0.67
2023-11-09T06:52:37.976Z,0.57
2023-11-09T06:55:40.707Z,0.70
2023-11-09T06:58:42.306Z,0.70
2023-11-09T07:01:43.921Z,0.60
2023-11-09T07:04:45.570Z,0.70
2023-11-09T07:07:47.253Z,0.70
2023-11-09T07:10:48.835Z,0.60
2023-11-09T07:13:50.424Z,0.73
2023-11-09T07:16:52.984Z,0.80
2023-11-09T07:19:54.489Z,1.00
2023-11-09T07:22:56.539Z,1.07
2023-11-09T07:25:58.188Z,1.17
2023-11-09T07:28:59.696Z,1.10
2023-11-09T07:32:01.257Z,1.10
2023-11-09T07:35:02.795Z,1.03
2023-11-09T07:38:04.379Z,0.90
2023-11-09T07:41:05.954Z,0.87
2023-11-09T07:44:07.457Z,0.80
2023-11-09T07:47:09.040Z,1.07
2023-11-09T07:50:10.585Z,1.50
2023-11-09T07:53:12.138Z,1.10
2023-11-09T07:56:13.659Z,1.20
2023-11-09T07:59:15.213Z,1.13
2023-11-09T08:02:16.745Z,1.37
2023-11-09T08:05:18.312Z,1.07
2023-11-09T08:08:19.870Z,0.90
2023-11-09T08:11:24.220Z,1.17
2023-11-09T08:14:25.910Z,1.33
2023-11-09T08:17:31.126Z,1.23
2023-11-09T08:20:33.053Z,1.10
2023-11-09T08:23:34.875Z,0.97
2023-11-09T08:26:36.415Z,0.83
2023-11-09T08:29:37.964Z,1.20
2023-11-09T08:32:39.744Z,0.90
2023-11-09T08:35:41.384Z,1.20
2023-11-09T08:38:42.921Z,1.10
2023-11-09T08:41:44.466Z,0.90
2023-11-09T08:44:46.012Z,1.10
2023-11-09T08:47:47.569Z,0.80
2023-11-09T08:50:49.176Z,0.93
2023-11-09T08:53:53.386Z,0.87
2023-11-09T08:56:55.561Z,1.23
2023-11-09T08:59:57.142Z,1.17
2023-11-09T09:02:58.776Z,1.00
2023-11-09T09:06:00.391Z,1.00
2023-11-09T09:09:02.360Z,1.00
2023-11-09T09:12:03.981Z,0.70
2023-11-09T09:15:05.562Z,1.00
2023-11-09T09:18:08.319Z,1.13
2023-11-09T09:21:10.156Z,0.80
2023-11-09T09:24:11.778Z,0.87
2023-11-09T09:27:13.298Z,1.10
2023-11-09T09:30:14.955Z,0.90
2023-11-09T09:33:16.543Z,0.90
2023-11-09T09:36:18.136Z,0.90
2023-11-09T09:39:19.788Z,1.27
2023-11-09T09:42:21.330Z,0.90
2023-11-09T09:45:22.897Z,0.90
2023-11-09T09:48:24.514Z,1.07
2023-11-09T09:51:26.159Z,0.70
2023-11-09T09:54:27.738Z,0.90
2023-11-09T09:57:29.367Z,0.98
2023-11-09T10:00:33.068Z,0.80
2023-11-09T10:03:34.899Z,1.07
2023-11-09T10:06:36.574Z,1.00
2023-11-09T10:09:40.599Z,0.70
2023-11-09T10:12:42.289Z,0.70
2023-11-09T10:15:43.874Z,0.77
2023-11-09T10:18:47.841Z,1.17
2023-11-09T10:21:49.366Z,0.97
2023-11-09T10:24:50.916Z,0.80
2023-11-09T10:27:52.512Z,0.90
2023-11-09T10:30:54.045Z,1.10
2023-11-09T10:33:55.687Z,1.13
2023-11-09T10:36:57.241Z,1.10
2023-11-09T10:39:58.800Z,0.83
2023-11-09T10:43:00.352Z,0.90
2023-11-09T10:46:01.946Z,1.10
2023-11-09T10:49:03.480Z,0.80
2023-11-09T10:52:05.022Z,0.83
2023-11-09T10:55:06.544Z,1.03
2023-11-09T10:58:08.245Z,1.13
2023-11-09T11:01:09.821Z,0.80
2023-11-09T11:04:11.585Z,1.10
2023-11-09T11:07:13.235Z,0.67
2023-11-09T11:10:14.876Z,1.03
2023-11-09T11:13:16.585Z,1.20
2023-11-09T11:16:18.144Z,1.07
2023-11-09T11:19:19.769Z,0.80
2023-11-09T11:22:21.387Z,1.17
2023-11-09T11:25:25.831Z,1.10
2023-11-09T11:28:27.545Z,1.00
2023-11-09T11:31:29.151Z,0.90
2023-11-09T11:34:33.038Z,0.97
2023-11-09T11:37:34.651Z,0.90
2023-11-09T11:40:38.279Z,1.00
2023-11-09T11:43:39.952Z,1.00
2023-11-09T11:46:41.655Z,1.13
2023-11-09T11:49:43.384Z,0.82
2023-11-09T11:52:44.982Z,0.80
2023-11-09T11:55:46.606Z,1.30
2023-11-09T11:58:48.552Z,1.00
2023-11-09T12:01:50.470Z,0.80
2023-11-09T12:04:52.124Z,1.10
2023-11-09T12:07:53.802Z,0.80
2023-11-09T12:10:55.443Z,0.90
2023-11-09T12:13:57.021Z,0.90
2023-11-09T12:17:01.043Z,1.07
2023-11-09T12:20:02.806Z,1.10
2023-11-09T12:23:04.370Z,1.13
2023-11-09T12:26:05.934Z,0.90
2023-11-09T12:29:07.464Z,0.80
2023-11-09T12:32:08.985Z,0.93
2023-11-09T12:35:10.530Z,0.90
2023-11-09T12:38:12.094Z,1.00
2023-11-09T12:41:13.634Z,0.90
2023-11-09T12:44:15.254Z,0.80
2023-11-09T12:47:16.871Z,1.00
2023-11-09T12:50:18.611Z,1.07
2023-11-09T12:53:20.232Z,0.95
2023-11-09T12:56:30.246Z,0.80
2023-11-09T12:59:37.251Z,0.82
2023-11-09T13:02:41.196Z,0.88
2023-11-09T13:05:42.784Z,0.90
2023-11-09T13:08:44.389Z,0.90
2023-11-09T13:11:45.941Z,0.80
2023-11-09T13:14:47.554Z,0.90
2023-11-09T13:17:49.134Z,1.02
2023-11-09T13:20:50.794Z,0.90
2023-11-09T13:23:52.344Z,0.80
2023-11-09T13:26:53.973Z,0.83
2023-11-09T13:29:55.557Z,1.20
2023-11-09T13:32:59.615Z,1.33
2023-11-09T13:36:01.230Z,1.13
2023-11-09T13:39:02.781Z,0.90
2023-11-09T13:42:04.327Z,0.98
2023-11-09T13:45:05.885Z,1.80
2023-11-09T13:48:07.444Z,1.20
2023-11-09T13:51:09.023Z,1.20
2023-11-09T13:54:10.580Z,1.30
2023-11-09T13:57:12.226Z,1.80
2023-11-09T14:00:13.863Z,1.40
2023-11-09T14:03:15.446Z,1.40
2023-11-09T14:06:16.988Z,1.47
2023-11-09T14:09:18.577Z,1.27
2023-11-09T14:12:20.139Z,1.10
2023-11-09T14:15:21.655Z,1.38
2023-11-09T14:18:23.304Z,1.20
2023-11-09T14:21:27.340Z,1.10
2023-11-09T14:24:28.901Z,1.00
2023-11-09T14:27:30.427Z,1.13
2023-11-09T14:30:32.038Z,1.13
2023-11-09T14:33:36.583Z,1.43
2023-11-09T14:36:38.120Z,1.40
2023-11-09T14:39:39.680Z,1.40
2023-11-09T14:42:41.279Z,1.10
2023-11-09T14:45:43.603Z,1.30
2023-11-09T14:48:45.424Z,1.20
2023-11-09T14:51:46.955Z,1.30
2023-11-09T14:54:48.550Z,1.20
2023-11-09T14:57:50.238Z,0.97
2023-11-09T15:00:51.841Z,1.20
2023-11-09T15:03:53.498Z,1.13
2023-11-09T15:06:55.181Z,1.37
2023-11-09T15:09:56.765Z,0.87
2023-11-09T15:12:58.338Z,1.20
2023-11-09T15:15:59.917Z,0.97
2023-11-09T15:19:01.547Z,1.03
2023-11-09T15:22:03.115Z,0.90
2023-11-09T15:25:04.681Z,1.20
2023-11-09T15:28:06.193Z,1.00
2023-11-09T15:31:07.739Z,0.93
2023-11-09T15:34:09.381Z,1.00
2023-11-09T15:37:10.951Z,1.07
2023-11-09T15:40:50.206Z,1.00
2023-11-09T15:43:34.082Z,1.07
2023-11-09T15:46:35.719Z,1.53
2023-11-09T15:49:37.275Z,0.93
2023-11-09T15:52:38.833Z,0.90
2023-11-09T15:55:40.399Z,1.00
2023-11-09T15:58:42.234Z,1.00
2023-11-09T16:01:43.889Z,1.23
2023-11-09T16:04:45.505Z,0.80
2023-11-09T16:07:47.124Z,0.97
2023-11-09T16:10:48.707Z,1.00
2023-11-09T16:13:50.379Z,0.90
2023-11-09T16:16:52.011Z,1.30
2023-11-09T16:19:53.629Z,1.00
2023-11-09T16:22:55.272Z,1.30
2023-11-09T16:25:56.915Z,1.50
2023-11-09T16:28:58.493Z,1.50
2023-11-09T16:32:00.233Z,1.60
2023-11-09T16:35:01.862Z,1.20
2023-11-09T16:38:03.456Z,1.02
2023-11-09T16:41:05.100Z,1.00
2023-11-09T16:44:06.831Z,0.93
2023-11-09T16:47:08.469Z,1.10
2023-11-09T16:50:10.067Z,1.27
2023-11-09T16:53:11.648Z,1.17
2023-11-09T16:56:13.231Z,1.10
2023-11-09T16:59:14.842Z,1.17
2023-11-09T17:02:16.509Z,1.30
2023-11-09T17:05:18.108Z,1.05
2023-11-09T17:08:19.715Z,1.02
2023-11-09T17:11:21.275Z,1.00
2023-11-09T17:14:22.817Z,1.20
2023-11-09T17:17:24.378Z,1.60
2023-11-09T17:20:25.994Z,1.55
2023-11-09T17:23:27.829Z,2.37
2023-11-09T17:26:29.334Z,1.42
2023-11-09T17:29:30.903Z,1.30
2023-11-09T17:32:32.628Z,1.43
2023-11-09T17:35:34.279Z,1.45
2023-11-09T17:38:35.831Z,1.20
2023-11-09T17:41:37.338Z,1.67
2023-11-09T17:44:38.965Z,1.67
2023-11-09T17:47:40.623Z,1.93
2023-11-09T17:50:42.170Z,2.17
2023-11-09T17:53:43.729Z,1.58
2023-11-09T17:56:45.384Z,1.60
2023-11-09T17:59:46.915Z,1.65
2023-11-09T18:02:48.615Z,2.40
2023-11-09T18:05:50.288Z,2.08
2023-11-09T18:08:51.857Z,2.03
2023-11-09T18:11:56.310Z,1.30
2023-11-09T18:14:58.890Z,1.50
2023-11-09T18:18:00.437Z,1.17
2023-11-09T18:21:02.018Z,2.00
2023-11-09T18:24:03.603Z,1.67
2023-11-09T18:27:05.126Z,1.27
2023-11-09T18:30:06.698Z,1.60
2023-11-09T18:33:08.351Z,1.35
2023-11-09T18:36:09.985Z,1.77
2023-11-09T18:39:11.694Z,1.13
2023-11-09T18:42:13.244Z,1.60
2023-11-09T18:45:14.821Z,1.83
2023-11-09T18:48:16.339Z,1.08
2023-11-09T18:51:17.953Z,1.30
2023-11-09T18:54:19.493Z,1.20
2023-11-09T18:57:21.129Z,1.60
2023-11-09T19:00:22.671Z,1.45
2023-11-09T19:06:28.704Z,1.73
2023-11-09T19:09:30.297Z,1.40
2023-11-09T19:12:31.857Z,1.60
2023-11-09T19:15:33.436Z,1.48
2023-11-09T19:18:35.181Z,1.45
2023-11-09T19:24:41.271Z,2.00
2023-11-09T19:27:42.834Z,1.50
2023-11-09T19:30:44.439Z,1.85
2023-11-09T19:33:46.041Z,1.67
2023-11-09T19:36:47.669Z,1.60
2023-11-09T19:39:49.235Z,1.65
2023-11-09T19:42:50.779Z,1.73
2023-11-09T19:45:52.324Z,1.42
2023-11-09T19:48:53.942Z,1.60
2023-11-09T19:51:55.496Z,1.70
2023-11-09T19:54:57.032Z,1.75
2023-11-09T19:57:58.581Z,1.67
2023-11-09T20:01:00.156Z,1.40
2023-11-09T20:04:01.901Z,1.27
2023-11-09T20:07:03.500Z,1.80
2023-11-09T20:10:05.032Z,1.80
2023-11-09T20:13:06.575Z,1.58
2023-11-09T20:16:08.163Z,1.77
2023-11-09T20:19:09.724Z,1.63
2023-11-09T20:22:11.262Z,1.80
2023-11-09T20:25:12.806Z,1.90
2023-11-09T20:28:14.328Z,1.55
2023-11-09T20:31:15.931Z,1.90
2023-11-09T20:34:17.596Z,1.67
2023-11-09T20:37:19.264Z,1.85
2023-11-09T20:40:20.829Z,1.52
2023-11-09T20:43:22.408Z,1.63
2023-11-09T20:46:24.010Z,1.50
2023-11-09T20:49:25.561Z,1.40
2023-11-09T20:52:27.121Z,1.92
2023-11-09T20:55:28.622Z,1.50
2023-11-09T20:58:30.186Z,1.40
2023-11-09T21:01:31.804Z,1.65
2023-11-09T21:04:33.443Z,1.83
2023-11-09T21:07:35.182Z,1.15
2023-11-09T21:10:36.760Z,1.65
2023-11-09T21:13:38.284Z,1.50
2023-11-09T21:16:43.419Z,1.25
2023-11-09T21:19:45.599Z,1.93
2023-11-09T21:22:47.144Z,1.37
2023-11-09T21:25:48.717Z,1.50
2023-11-09T21:28:50.323Z,1.73
2023-11-09T21:31:51.867Z,1.58
2023-11-09T21:34:53.462Z,1.67
2023-11-09T21:37:55.042Z,1.47
2023-11-09T21:40:56.563Z,1.67
2023-11-09T21:43:58.111Z,1.63
2023-11-09T21:46:59.642Z,1.50
2023-11-09T21:50:01.185Z,1.00
2023-11-09T21:53:02.730Z,1.50
2023-11-09T21:56:06.371Z,1.20
2023-11-09T21:59:08.307Z,1.50
2023-11-09T22:02:09.940Z,1.43
2023-11-09T22:05:11.528Z,1.42
2023-11-09T22:08:13.090Z,1.70
2023-11-09T22:11:14.783Z,1.58
2023-11-09T22:14:16.397Z,1.40
2023-11-09T22:17:17.945Z,1.53
2023-11-09T22:20:19.504Z,1.53
2023-11-09T22:23:21.015Z,1.25
2023-11-09T22:26:22.748Z,1.40
2023-11-09T22:29:24.329Z,1.30
2023-11-09T22:32:26.966Z,1.25
2023-11-09T22:35:28.708Z,1.30
2023-11-09T22:38:30.252Z,1.27
2023-11-09T22:41:31.808Z,1.37
2023-11-09T22:44:33.387Z,1.63
2023-11-09T22:47:34.931Z,1.20
2023-11-09T22:50:36.496Z,1.23
2023-11-09T22:53:38.070Z,1.08
2023-11-09T22:56:39.616Z,1.08
2023-11-09T22:59:41.169Z,1.27
2023-11-09T23:02:42.769Z,1.20
2023-11-09T23:05:44.360Z,1.33
2023-11-09T23:08:45.879Z,0.88
2023-11-09T23:11:47.416Z,1.00
2023-11-09T23:14:48.914Z,1.30
2023-11-09T23:17:50.478Z,1.07
2023-11-09T23:20:52.021Z,1.00
2023-11-09T23:23:53.543Z,1.00
2023-11-09T23:26:55.090Z,0.97
2023-11-09T23:29:56.615Z,1.08
2023-11-09T23:32:58.174Z,1.02
2023-11-09T23:35:59.748Z,1.30
2023-11-09T23:39:01.263Z,0.90
2023-11-09T23:42:02.787Z,1.00
2023-11-09T23:45:04.388Z,0.90
2023-11-09T23:48:12.393Z,1.27
2023-11-09T23:51:14.837Z,1.30
2023-11-09T23:54:16.423Z,0.98
2023-11-09T23:57:17.934Z,0.98
